الصفحة الرئيسية
METAR-TAF:

METAR-TAF

مطار :

Phoenix Goodyear Airport

Goodyear, أريزونا, الولايات المتحدة

دائرة عرض: 33-25N, خط طول: 112-23W, ارتفاع: 295 متر

مراقبة الطقس الحالي

تاريخ ووقت الإصدار 7ساعات و 6 دقيقة قبل الساعة 03:47UTC
رياح هادئة
درجة الحرارة 31°درجة مئوية
الرطوبة 19%
ضغط 1012 hPa
الرؤية: 16.1 كم
غيوم قليلة على ارتفاع 25000 قدم

METAR: KGYR 290347Z 00000KT 10SM FEW250 31/05 A2988 RMK LAST

زمن: 03:53 (10:53 UTC)


TAF: مفقودة

أرصاد الطقس والتوقعات من أكثر من 4000 مطار (تقارير الطقس للمطار METAR والتنبؤ بالطقس بالمطارTAF).

المحطات المتاحة هي النقط الصفراء والحمراء على الخريطة.

حرك المؤشر فوق النقطة لمعرفة اسم المحطة.

ثم انقر لمعرفة أرصاد وتوقعات الطقس.

لتغيير الخارطة: اضغط على الأزرار الخضراء مع رمز الصليب الأسود للتكبير. على الزر الأخضر مع شرطة للتصغير، أو على الأسهم الخضراء للخرائط المجاورة.


METAR-TAF: